Terminal Aerodrome Forecast
Issued by NWS

Home | Current Version | Previous Version | Text Only | Print | Product List | Glossary On
Versions: 1 2 3 4 5 6 7 8 9 10 11 12 13 14 15 16 17 18 19
000
FTUS43 KILX 211100
TAFDEC
TAF
KDEC 211125Z 2112/2212 22008KT P6SM SCT060 BKN250
     FM211400 22011KT P6SM SCT060 BKN250
     FM212100 20010KT P6SM SCT060
     FM220100 18008KT P6SM SCT250
     FM220600 21007KT P6SM BKN120=

USA.gov is the U.S. government's official web portal to all federal, state and local government web resources and services.